Time;durP1;ratioP1;P1;durP2;ratioP2;P2;SDS_P1;SDS_P2;PMS_P1;PMS_P2;Temp;Humidity;BMP_temperature;BMP_pressure;BME280_temperature;BME280_humidity;BME280_pressure;Samples;Min_cycle;Max_cycle;Signal;HPM_P1;HPM_P2
2021/06/27 00:01:29;;;;;;;9.15;6.10;;;640.10;1817.60;;;;;;5135585;27;20034;-78
2021/06/27 00:03:55;;;;;;;12.88;6.45;;;640.00;1817.60;;;;;;5134967;27;20484;-75
2021/06/27 00:06:22;;;;;;;13.50;6.53;;;615.30;1817.60;;;;;;5134926;27;20019;-77
2021/06/27 00:08:49;;;;;;;13.48;6.60;;;615.30;1817.60;;;;;;5135144;27;20941;-75
2021/06/27 00:11:15;;;;;;;10.50;6.40;;;615.20;1843.20;;;;;;5117233;27;20511;-75
2021/06/27 00:13:43;;;;;;;9.48;6.72;;;615.10;1843.20;;;;;;5116696;27;20023;-76
2021/06/27 00:16:09;;;;;;;10.30;6.85;;;615.20;1843.20;;;;;;5135251;27;20019;-77
2021/06/27 00:18:38;;;;;;;11.43;5.70;;;615.20;1843.20;;;;;;5116560;27;20362;-75
2021/06/27 00:21:07;;;;;;;12.00;6.43;;;615.10;1843.20;;;;;;5116420;27;20019;-75
2021/06/27 00:23:39;;;;;;;9.30;5.90;;;615.10;1843.20;;;;;;5134836;27;20484;-76
2021/06/27 00:26:12;;;;;;;11.68;6.57;;;615.10;1868.80;;;;;;5134535;27;20461;-76
2021/06/27 00:28:39;;;;;;;14.38;7.03;;;615.00;1868.80;;;;;;5116380;27;20027;-75
2021/06/27 00:31:05;;;;;;;11.23;5.93;;;614.90;1894.40;;;;;;5134511;27;20487;-74
2021/06/27 00:33:31;;;;;;;13.35;5.68;;;614.90;1894.40;;;;;;5134177;27;20027;-75
2021/06/27 00:35:57;;;;;;;11.45;5.82;;;614.80;1920.00;;;;;;5116538;27;20035;-78
2021/06/27 00:38:26;;;;;;;10.77;6.18;;;614.80;1920.00;;;;;;5134621;27;20015;-75
2021/06/27 00:40:53;;;;;;;8.95;6.05;;;614.70;1920.00;;;;;;5116378;27;20075;-75
2021/06/27 00:43:19;;;;;;;8.85;5.95;;;614.80;1894.40;;;;;;5134234;27;20412;-75
2021/06/27 00:45:45;;;;;;;8.18;5.45;;;614.80;1894.40;;;;;;5134661;27;20044;-75
2021/06/27 00:48:11;;;;;;;13.32;6.25;;;614.80;1894.40;;;;;;5116054;27;20038;-76
2021/06/27 00:50:48;;;;;;;10.30;6.07;;;614.70;1894.40;;;;;;5116054;27;20058;-78
2021/06/27 00:53:14;;;;;;;8.18;5.22;;;614.70;1894.40;;;;;;5113964;27;20024;-75
2021/06/27 00:55:41;;;;;;;10.27;6.05;;;614.60;1894.40;;;;;;5134123;27;20035;-75
2021/06/27 00:58:08;;;;;;;7.03;5.30;;;614.50;1920.00;;;;;;5134206;27;20421;-75
2021/06/27 01:00:36;;;;;;;9.00;5.78;;;614.50;1920.00;;;;;;5133803;27;20015;-76
2021/06/27 01:03:02;;;;;;;10.15;6.00;;;614.40;1920.00;;;;;;5133959;27;20026;-78
2021/06/27 01:05:31;;;;;;;6.97;5.10;;;614.60;1920.00;;;;;;5112565;27;20045;-78
2021/06/27 01:07:57;;;;;;;9.65;5.78;;;614.50;1920.00;;;;;;5115934;27;20023;-75
2021/06/27 01:10:24;;;;;;;10.27;6.00;;;614.60;1920.00;;;;;;5133799;27;20033;-75
2021/06/27 01:12:51;;;;;;;16.42;5.97;;;614.60;1894.40;;;;;;5131538;27;20533;-76
2021/06/27 01:15:18;;;;;;;13.18;6.00;;;614.60;1920.00;;;;;;5133285;27;20088;-76
2021/06/27 01:17:46;;;;;;;11.18;5.82;;;614.60;1920.00;;;;;;5133804;27;21367;-75
2021/06/27 01:20:17;;;;;;;10.38;5.97;;;614.60;1894.40;;;;;;5131879;27;20460;-76
2021/06/27 01:22:44;;;;;;;15.77;6.78;;;614.60;1920.00;;;;;;5133628;27;20409;-79
2021/06/27 01:25:12;;;;;;;11.38;6.95;;;614.40;1945.60;;;;;;5130857;27;20057;-75
2021/06/27 01:27:37;;;;;;;10.52;6.05;;;614.50;1945.60;;;;;;5133395;27;20015;-78
2021/06/27 01:30:09;;;;;;;16.05;7.75;;;614.40;1945.60;;;;;;5115354;27;20392;-76
2021/06/27 01:32:35;;;;;;;10.80;6.30;;;589.70;1971.20;;;;;;5112859;27;20443;-77
2021/06/27 01:35:03;;;;;;;14.40;6.68;;;589.70;1945.60;;;;;;5133380;27;20033;-75
2021/06/27 01:37:28;;;;;;;21.92;7.03;;;614.40;1945.60;;;;;;5133601;27;20018;-76
2021/06/27 01:39:54;;;;;;;11.55;6.32;;;614.40;1945.60;;;;;;5133513;27;20023;-78
2021/06/27 01:42:23;;;;;;;11.32;5.72;;;614.40;1920.00;;;;;;5133557;27;20378;-76
2021/06/27 01:44:49;;;;;;;10.43;6.15;;;589.70;1920.00;;;;;;5132059;27;20015;-76
2021/06/27 01:47:14;;;;;;;8.70;5.95;;;614.40;1920.00;;;;;;5133277;27;20056;-78
2021/06/27 01:49:41;;;;;;;11.13;7.38;;;589.70;1920.00;;;;;;5114562;27;20023;-77
2021/06/27 01:52:07;;;;;;;10.35;5.90;;;589.60;1920.00;;;;;;5133310;27;20023;-76
2021/06/27 01:54:37;;;;;;;9.23;5.97;;;589.60;1920.00;;;;;;5132791;27;20043;-75
2021/06/27 01:57:02;;;;;;;7.78;6.32;;;589.60;1920.00;;;;;;5114472;27;20063;-75
2021/06/27 01:59:28;;;;;;;11.02;6.18;;;589.50;1945.60;;;;;;5133259;27;20045;-75
2021/06/27 02:01:54;;;;;;;9.50;6.10;;;589.50;1945.60;;;;;;5132695;27;20066;-76
2021/06/27 02:04:19;;;;;;;13.15;6.85;;;589.50;1945.60;;;;;;5132683;27;20446;-76
2021/06/27 02:06:45;;;;;;;9.70;6.28;;;589.50;1945.60;;;;;;5132475;27;20038;-76
2021/06/27 02:09:13;;;;;;;11.07;6.72;;;589.50;1971.20;;;;;;5132824;27;20030;-75
2021/06/27 02:11:39;;;;;;;13.38;6.80;;;589.50;1945.60;;;;;;5133152;27;20031;-76
2021/06/27 02:14:06;;;;;;;10.80;7.43;;;589.40;1971.20;;;;;;5132862;27;20376;-75
2021/06/27 02:16:33;;;;;;;14.25;7.55;;;589.40;1971.20;;;;;;5111354;27;20015;-75
2021/06/27 02:18:59;;;;;;;9.80;7.68;;;589.30;1971.20;;;;;;5114235;27;20030;-76
2021/06/27 02:21:44;;;;;;;12.50;8.05;;;589.20;1971.20;;;;;;5132259;27;20019;-75
2021/06/27 02:24:10;;;;;;;22.13;7.95;;;588.90;2022.40;;;;;;5131935;27;20027;-76
2021/06/27 02:26:36;;;;;;;11.93;7.70;;;589.00;2022.40;;;;;;5132617;27;20526;-75
2021/06/27 02:29:04;;;;;;;11.05;7.95;;;589.10;1996.80;;;;;;5132386;27;20072;-76
2021/06/27 02:31:31;;;;;;;16.50;7.88;;;589.10;1996.80;;;;;;5132622;27;20357;-75
2021/06/27 02:33:58;;;;;;;15.32;8.93;;;589.10;1996.80;;;;;;5113961;27;20083;-75
2021/06/27 02:36:25;;;;;;;10.40;7.60;;;589.30;1996.80;;;;;;5132031;27;20065;-75
2021/06/27 02:38:51;;;;;;;14.27;8.13;;;589.10;1996.80;;;;;;5132260;27;20064;-77
2021/06/27 02:41:18;;;;;;;15.15;8.07;;;589.10;1996.80;;;;;;5113911;27;20019;-76
2021/06/27 02:43:45;;;;;;;11.82;8.60;;;589.10;1971.20;;;;;;5131959;27;20049;-76
2021/06/27 02:46:10;;;;;;;14.05;9.32;;;589.10;1971.20;;;;;;5113847;27;20029;-76
2021/06/27 02:48:36;;;;;;;11.35;8.13;;;589.00;1996.80;;;;;;5114134;28;20020;-75
2021/06/27 02:51:03;;;;;;;18.98;9.80;;;589.10;1971.20;;;;;;5114003;28;20079;-75
2021/06/27 02:53:29;;;;;;;16.25;8.77;;;588.90;1996.80;;;;;;5131995;27;20428;-75
2021/06/27 02:56:09;;;;;;;16.08;8.23;;;588.80;2022.40;;;;;;5128786;27;20049;-77
2021/06/27 02:58:48;;;;;;;13.73;8.45;;;589.00;1996.80;;;;;;5129102;28;20468;-76
2021/06/27 03:01:15;;;;;;;11.98;8.02;;;588.90;1996.80;;;;;;5132169;27;20072;-77
2021/06/27 03:03:43;;;;;;;11.98;9.07;;;588.90;1996.80;;;;;;5132023;28;20019;-75
2021/06/27 03:06:09;;;;;;;15.32;7.63;;;589.00;1996.80;;;;;;5113992;28;20465;-78
2021/06/27 03:08:35;;;;;;;15.02;8.18;;;589.00;1996.80;;;;;;5131868;27;20378;-75
2021/06/27 03:11:01;;;;;;;16.15;8.18;;;588.80;2022.40;;;;;;5113587;28;20053;-75
2021/06/27 03:13:27;;;;;;;10.25;7.32;;;588.90;2022.40;;;;;;5131969;27;20011;-75
2021/06/27 03:15:53;;;;;;;13.95;8.45;;;588.90;2022.40;;;;;;5131625;28;20023;-75
2021/06/27 03:18:19;;;;;;;15.48;8.32;;;564.10;2048.00;;;;;;5132116;28;20088;-74
2021/06/27 03:20:46;;;;;;;16.35;7.72;;;563.80;2073.60;;;;;;5113829;28;20043;-75
2021/06/27 03:23:12;;;;;;;12.95;8.45;;;563.80;2073.60;;;;;;5113732;28;20115;-75
2021/06/27 03:25:39;;;;;;;19.13;8.40;;;563.80;2073.60;;;;;;5113646;28;20369;-78
2021/06/27 03:28:05;;;;;;;17.48;8.75;;;563.60;2099.20;;;;;;5131745;27;20019;-76
2021/06/27 03:30:31;;;;;;;17.40;9.02;;;563.30;2124.80;;;;;;5131398;28;20023;-75
2021/06/27 03:32:57;;;;;;;16.08;8.32;;;563.20;2124.80;;;;;;5129054;28;20366;-75
2021/06/27 03:35:23;;;;;;;21.85;7.80;;;538.50;2124.80;;;;;;5131600;28;20381;-79
2021/06/27 03:40:19;;;;;;;12.85;7.85;;;563.20;2124.80;;;;;;5129518;28;20030;-75
2021/06/27 03:42:46;;;;;;;16.67;7.82;;;538.50;2124.80;;;;;;5113353;27;20019;-76
2021/06/27 03:45:13;;;;;;;14.80;8.60;;;563.30;2124.80;;;;;;5131906;28;20027;-75
2021/06/27 03:47:39;;;;;;;16.67;8.75;;;563.30;2124.80;;;;;;5110618;28;20030;-78
2021/06/27 03:50:05;;;;;;;15.80;8.63;;;563.50;2124.80;;;;;;5112840;28;20023;-74
2021/06/27 03:52:30;;;;;;;14.07;8.90;;;563.40;2124.80;;;;;;5131328;28;20016;-79
2021/06/27 03:54:56;;;;;;;16.23;9.38;;;563.30;2150.40;;;;;;5113182;28;20088;-76
2021/06/27 03:57:22;;;;;;;18.08;9.25;;;563.20;2150.40;;;;;;5113307;28;20019;-76
2021/06/27 03:59:47;;;;;;;17.42;8.75;;;563.50;2124.80;;;;;;5131630;28;20063;-75
2021/06/27 04:02:13;;;;;;;17.05;9.40;;;563.60;2124.80;;;;;;5131512;28;20084;-75
2021/06/27 04:04:39;;;;;;;14.57;8.40;;;563.90;2099.20;;;;;;5131696;28;20481;-75
2021/06/27 04:07:05;;;;;;;16.90;8.98;;;564.00;2099.20;;;;;;5113111;27;20026;-75
2021/06/27 04:09:30;;;;;;;14.98;8.63;;;588.80;2073.60;;;;;;5134531;27;20027;-80
2021/06/27 04:11:56;;;;;;;11.88;8.68;;;564.10;2073.60;;;;;;5116434;27;20019;-75
2021/06/27 04:14:22;;;;;;;10.90;7.75;;;564.10;2048.00;;;;;;5116274;27;20091;-75
2021/06/27 04:16:47;;;;;;;13.90;8.25;;;588.80;2048.00;;;;;;5135088;27;20023;-76
2021/06/27 04:19:13;;;;;;;12.27;9.00;;;588.90;2048.00;;;;;;5115625;27;21169;-75
2021/06/27 04:21:39;;;;;;;11.82;8.48;;;588.90;2048.00;;;;;;5132551;27;20040;-76
2021/06/27 04:24:05;;;;;;;12.10;8.30;;;589.00;2022.40;;;;;;5134843;27;20512;-77
2021/06/27 04:26:31;;;;;;;12.70;8.27;;;589.00;2022.40;;;;;;5116631;27;20031;-75
2021/06/27 04:28:57;;;;;;;14.02;9.35;;;589.10;2022.40;;;;;;5115838;27;20027;-77
2021/06/27 04:31:22;;;;;;;11.73;7.95;;;589.20;1996.80;;;;;;5116058;27;20014;-75
2021/06/27 04:33:48;;;;;;;18.73;8.98;;;589.20;1996.80;;;;;;5116308;27;20494;-75
2021/06/27 04:36:16;;;;;;;12.65;9.52;;;589.00;2022.40;;;;;;5116018;27;20422;-75
2021/06/27 04:38:42;;;;;;;14.50;9.32;;;589.20;2022.40;;;;;;5132335;27;20109;-75
2021/06/27 04:41:08;;;;;;;14.10;10.38;;;589.10;1996.80;;;;;;5134775;27;20589;-74
2021/06/27 04:43:34;;;;;;;13.07;9.02;;;589.30;1971.20;;;;;;5134773;27;20016;-74
2021/06/27 04:45:59;;;;;;;14.40;9.00;;;589.40;1971.20;;;;;;5133897;27;20373;-77
2021/06/27 04:48:25;;;;;;;17.55;10.57;;;589.50;1971.20;;;;;;5134557;27;20023;-74
2021/06/27 04:50:51;;;;;;;12.82;9.65;;;589.60;1971.20;;;;;;5134248;27;20487;-74
2021/06/27 04:53:17;;;;;;;13.85;9.68;;;589.70;1971.20;;;;;;5134342;27;20457;-74
2021/06/27 04:55:44;;;;;;;16.65;10.70;;;589.50;1971.20;;;;;;5134292;27;20085;-74
2021/06/27 04:58:10;;;;;;;14.80;9.50;;;589.40;1996.80;;;;;;5115597;27;20037;-74
2021/06/27 05:00:37;;;;;;;11.50;8.63;;;589.40;1996.80;;;;;;5134083;27;20444;-76
2021/06/27 05:03:04;;;;;;;18.27;11.02;;;589.60;1996.80;;;;;;5131159;27;20529;-75
2021/06/27 05:05:30;;;;;;;22.17;15.23;;;589.70;1996.80;;;;;;5133941;27;20023;-74
2021/06/27 05:07:56;;;;;;;16.35;10.25;;;614.50;1971.20;;;;;;5133674;27;20434;-75
2021/06/27 05:10:22;;;;;;;13.77;8.95;;;614.70;1945.60;;;;;;5131424;27;20070;-76
2021/06/27 05:12:47;;;;;;;12.85;9.65;;;614.70;1945.60;;;;;;5115685;27;20027;-77
2021/06/27 05:15:13;;;;;;;11.65;9.02;;;614.70;1945.60;;;;;;5134130;27;20414;-76
2021/06/27 05:17:39;;;;;;;11.95;9.45;;;614.80;1945.60;;;;;;5133789;27;20015;-77
2021/06/27 05:20:06;;;;;;;14.52;9.32;;;614.80;1945.60;;;;;;5115238;27;20083;-76
2021/06/27 05:22:32;;;;;;;16.40;9.63;;;614.70;1945.60;;;;;;5115099;27;20023;-76
2021/06/27 05:24:57;;;;;;;13.85;9.40;;;614.90;1971.20;;;;;;5133378;27;20035;-73
2021/06/27 05:27:23;;;;;;;10.48;8.65;;;614.90;1971.20;;;;;;5133691;27;20099;-77
2021/06/27 05:29:49;;;;;;;13.25;8.95;;;615.10;1945.60;;;;;;5133607;27;20064;-80
2021/06/27 05:32:15;;;;;;;15.88;8.45;;;615.20;1945.60;;;;;;5133938;27;20494;-75
2021/06/27 05:34:40;;;;;;;11.48;8.90;;;615.20;1945.60;;;;;;5133545;27;20031;-74
2021/06/27 05:37:06;;;;;;;16.40;9.48;;;640.00;1945.60;;;;;;5115451;27;20018;-79
2021/06/27 05:39:32;;;;;;;13.00;8.65;;;615.30;1945.60;;;;;;5132886;27;20026;-76
2021/06/27 05:41:57;;;;;;;17.60;11.20;;;640.10;1920.00;;;;;;5115026;27;20027;-77
2021/06/27 05:44:23;;;;;;;22.48;15.75;;;640.10;1920.00;;;;;;5132938;27;20007;-74
2021/06/27 05:46:49;;;;;;;13.75;10.38;;;640.20;1920.00;;;;;;5133477;27;20080;-77
2021/06/27 05:49:15;;;;;;;13.68;9.25;;;640.20;1920.00;;;;;;5115083;27;20026;-75
2021/06/27 05:51:41;;;;;;;17.77;10.55;;;640.30;1920.00;;;;;;5133224;27;20041;-77
2021/06/27 05:54:08;;;;;;;24.80;13.95;;;640.30;1894.40;;;;;;5132687;27;20032;-77
2021/06/27 05:56:35;;;;;;;19.38;10.35;;;640.50;1894.40;;;;;;5132872;27;20463;-78
2021/06/27 05:59:01;;;;;;;15.98;8.32;;;640.60;1868.80;;;;;;5115050;27;20084;-76
2021/06/27 06:01:26;;;;;;;18.00;8.52;;;640.70;1868.80;;;;;;5132797;27;20469;-76
2021/06/27 06:03:52;;;;;;;21.25;10.52;;;640.70;1894.40;;;;;;5133066;27;20027;-76
2021/06/27 06:06:18;;;;;;;16.55;10.90;;;640.70;1868.80;;;;;;5133078;27;20054;-74
2021/06/27 06:08:45;;;;;;;15.60;12.45;;;640.80;1843.20;;;;;;5114863;27;20012;-74
2021/06/27 06:11:12;;;;;;;20.98;16.17;;;640.90;1843.20;;;;;;5132892;27;20076;-75
2021/06/27 06:13:39;;;;;;;14.80;10.25;;;665.60;1843.20;;;;;;5132726;27;20019;-75
2021/06/27 06:16:06;;;;;;;13.80;9.82;;;640.90;1843.20;;;;;;5132013;27;20031;-77
2021/06/27 06:18:32;;;;;;;20.27;10.85;;;665.70;1868.80;;;;;;5132492;27;20015;-74
2021/06/27 06:20:58;;;;;;;21.40;11.02;;;665.80;1843.20;;;;;;5132737;27;20033;-78
2021/06/27 06:23:24;;;;;;;15.20;11.27;;;665.80;1843.20;;;;;;5132274;27;20015;-78
2021/06/27 06:25:50;;;;;;;28.98;14.18;;;665.90;1817.60;;;;;;5132813;27;20036;-73
2021/06/27 06:28:16;;;;;;;17.77;10.00;;;666.20;1817.60;;;;;;5132624;27;20508;-76
2021/06/27 06:30:41;;;;;;;16.80;8.30;;;666.40;1792.00;;;;;;5132201;27;20027;-73
2021/06/27 06:33:13;;;;;;;15.63;9.35;;;666.30;1817.60;;;;;;5132338;27;20049;-76
2021/06/27 06:35:42;;;;;;;21.10;9.50;;;666.50;1817.60;;;;;;5132335;27;20031;-74
2021/06/27 06:38:10;;;;;;;12.68;8.98;;;691.20;1766.40;;;;;;5129574;27;20023;-74
2021/06/27 06:40:37;;;;;;;15.50;11.05;;;691.30;1766.40;;;;;;5113938;27;20026;-74
2021/06/27 06:43:04;;;;;;;16.50;9.95;;;691.30;1766.40;;;;;;5132367;27;20012;-74
2021/06/27 06:45:30;;;;;;;14.55;10.05;;;691.40;1766.40;;;;;;5132120;27;20487;-73
2021/06/27 06:47:56;;;;;;;14.57;10.48;;;691.40;1740.80;;;;;;5132571;27;20023;-77
2021/06/27 06:50:23;;;;;;;18.10;11.27;;;691.50;1740.80;;;;;;5132160;27;20023;-74
2021/06/27 06:52:48;;;;;;;16.48;9.68;;;691.50;1740.80;;;;;;5129494;27;20016;-74
2021/06/27 06:55:14;;;;;;;15.77;9.95;;;691.70;1715.20;;;;;;5131769;27;20050;-73
2021/06/27 06:57:40;;;;;;;14.45;9.80;;;691.50;1740.80;;;;;;5132156;28;20067;-73
2021/06/27 07:00:08;;;;;;;19.38;10.32;;;691.40;1740.80;;;;;;5131242;27;20039;-73
2021/06/27 07:02:34;;;;;;;20.98;8.13;;;691.60;1715.20;;;;;;5131940;27;20484;-78
2021/06/27 07:05:00;;;;;;;14.00;9.60;;;691.80;1689.60;;;;;;5132304;28;20034;-77
2021/06/27 07:07:26;;;;;;;12.40;8.70;;;691.80;1664.00;;;;;;5131485;27;20541;-76
2021/06/27 07:09:52;;;;;;;12.68;9.07;;;691.90;1638.40;;;;;;5132090;28;20031;-78
2021/06/27 07:12:18;;;;;;;11.88;7.60;;;691.90;1689.60;;;;;;5132045;27;20031;-75
2021/06/27 07:14:44;;;;;;;16.17;9.60;;;692.00;1664.00;;;;;;5108826;28;20484;-76
2021/06/27 07:17:11;;;;;;;12.65;7.53;;;716.80;1664.00;;;;;;5131823;27;20022;-76
2021/06/27 07:19:37;;;;;;;12.60;7.20;;;692.10;1664.00;;;;;;5113548;28;20127;-76
2021/06/27 07:22:03;;;;;;;11.90;7.90;;;716.80;1664.00;;;;;;5131863;28;20547;-76
2021/06/27 07:24:29;;;;;;;11.07;6.50;;;692.10;1638.40;;;;;;5127323;27;20027;-77
2021/06/27 07:26:55;;;;;;;12.45;6.13;;;716.80;1689.60;;;;;;5104103;28;20031;-76
2021/06/27 07:29:20;;;;;;;8.30;6.65;;;716.90;1638.40;;;;;;5124193;27;20036;-75
2021/06/27 07:31:46;;;;;;;12.63;7.30;;;716.90;1638.40;;;;;;5125327;28;20376;-76
2021/06/27 07:34:12;;;;;;;9.07;7.18;;;716.90;1638.40;;;;;;5131214;27;20035;-78
2021/06/27 07:36:38;;;;;;;8.90;6.00;;;717.10;1638.40;;;;;;5123005;27;20377;-76
2021/06/27 07:39:04;;;;;;;11.88;6.68;;;717.10;1587.20;;;;;;5127001;28;20054;-76
2021/06/27 07:41:29;;;;;;;12.10;5.95;;;717.20;1612.80;;;;;;5122319;27;20023;-78
2021/06/27 07:43:55;;;;;;;9.57;6.53;;;717.40;1638.40;;;;;;5134676;27;20020;-79
2021/06/27 07:46:21;;;;;;;9.55;6.65;;;717.50;1587.20;;;;;;5128043;27;20046;-77
2021/06/27 07:48:46;;;;;;;7.45;5.43;;;717.50;1561.60;;;;;;5133767;27;20023;-76
2021/06/27 07:51:12;;;;;;;7.32;5.65;;;717.70;1536.00;;;;;;5130174;27;20023;-76
2021/06/27 07:53:38;;;;;;;5.78;5.10;;;742.40;1484.80;;;;;;5126165;27;20058;-76
2021/06/27 07:56:04;;;;;;;14.00;5.95;;;742.40;1536.00;;;;;;5116792;27;20050;-76
2021/06/27 07:58:30;;;;;;;11.18;6.15;;;742.50;1510.40;;;;;;5135985;27;20062;-76
2021/06/27 08:00:56;;;;;;;8.35;5.68;;;742.60;1510.40;;;;;;5135363;27;20067;-75
2021/06/27 08:03:21;;;;;;;8.10;5.43;;;742.60;1484.80;;;;;;5117528;27;20072;-75
2021/06/27 08:05:47;;;;;;;8.10;4.90;;;742.80;1484.80;;;;;;5135686;27;20023;-76
2021/06/27 08:08:15;;;;;;;8.30;5.43;;;742.80;1484.80;;;;;;5135835;27;20025;-76
2021/06/27 08:10:41;;;;;;;8.15;5.28;;;742.80;1484.80;;;;;;5135467;27;20019;-75
2021/06/27 08:13:07;;;;;;;7.07;5.15;;;742.80;1510.40;;;;;;5116880;27;20036;-72
2021/06/27 08:15:33;;;;;;;8.90;5.20;;;742.80;1484.80;;;;;;5135043;27;20086;-72
2021/06/27 08:17:58;;;;;;;7.55;5.00;;;742.60;1459.20;;;;;;5135192;27;20039;-73
2021/06/27 08:20:24;;;;;;;7.15;4.53;;;742.70;1484.80;;;;;;5135062;27;20026;-72
2021/06/27 08:22:50;;;;;;;6.03;4.70;;;742.70;1433.60;;;;;;5135167;27;20045;-72
2021/06/27 08:25:17;;;;;;;9.57;5.28;;;742.80;1433.60;;;;;;5117119;27;20019;-73
2021/06/27 08:27:43;;;;;;;7.00;4.90;;;742.80;1382.40;;;;;;5135127;27;20030;-73
2021/06/27 08:30:10;;;;;;;6.05;4.40;;;743.00;1382.40;;;;;;5135063;27;20019;-73
2021/06/27 08:32:42;;;;;;;10.43;5.22;;;743.00;1305.60;;;;;;5134526;27;20561;-78
2021/06/27 08:35:08;;;;;;;7.72;4.32;;;743.10;1356.80;;;;;;5131936;27;20134;-73
2021/06/27 08:37:34;;;;;;;10.40;5.10;;;743.30;1331.20;;;;;;5134105;27;20015;-73
2021/06/27 08:39:59;;;;;;;6.93;4.63;;;768.00;1356.80;;;;;;5134204;27;20038;-73
2021/06/27 08:42:25;;;;;;;7.82;4.55;;;768.10;1331.20;;;;;;5134171;27;20442;-73
2021/06/27 08:44:51;;;;;;;6.90;4.22;;;768.20;1280.00;;;;;;5134556;27;20031;-73
2021/06/27 08:47:18;;;;;;;7.70;4.25;;;768.30;1228.80;;;;;;5122273;27;20053;-73
2021/06/27 08:49:52;;;;;;;9.43;4.32;;;768.30;1228.80;;;;;;5131244;27;20498;-73
2021/06/27 08:52:19;;;;;;;5.78;4.00;;;768.30;1254.40;;;;;;5134123;27;20019;-79
2021/06/27 08:54:46;;;;;;;5.68;4.80;;;768.40;1280.00;;;;;;5130307;27;20039;-73
2021/06/27 08:57:13;;;;;;;4.38;3.55;;;768.40;1228.80;;;;;;5112975;27;20035;-77
2021/06/27 08:59:40;;;;;;;10.40;3.40;;;768.40;1203.20;;;;;;5133783;27;20015;-73
2021/06/27 09:02:06;;;;;;;4.18;2.97;;;768.60;1152.00;;;;;;5133844;27;20499;-73
2021/06/27 09:04:34;;;;;;;5.40;2.88;;;768.50;1152.00;;;;;;5125926;27;20504;-73
2021/06/27 09:07:30;;;;;;;5.43;2.80;;;768.60;1100.80;;;;;;5121873;27;20016;-79
2021/06/27 09:10:06;;;;;;;4.30;3.10;;;768.90;1075.20;;;;;;5137828;27;20020;-73
2021/06/27 09:12:55;;;;;;;8.15;4.28;;;768.80;1100.80;;;;;;5144302;27;20375;-73
2021/06/27 09:15:49;;;;;;;5.45;3.47;;;768.90;1100.80;;;;;;5112808;28;20100;-73
2021/06/27 09:18:14;;;;;;;8.27;3.45;;;768.90;1100.80;;;;;;5115552;27;20015;-72
2021/06/27 09:20:49;;;;;;;5.03;3.85;;;793.70;1126.40;;;;;;5112150;28;20388;-72
2021/06/27 09:23:17;;;;;;;4.80;3.88;;;793.80;1152.00;;;;;;5123305;27;20019;-72
2021/06/27 09:25:45;;;;;;;5.97;4.90;;;793.80;1152.00;;;;;;5128941;27;20035;-73
2021/06/27 09:28:14;;;;;;;5.68;3.78;;;793.90;1152.00;;;;;;5133104;27;20031;-78
2021/06/27 09:30:42;;;;;;;6.03;4.10;;;793.90;1152.00;;;;;;5133197;27;20015;-73
2021/06/27 09:33:22;;;;;;;6.57;4.65;;;794.20;1152.00;;;;;;5130894;27;20027;-74
2021/06/27 09:35:57;;;;;;;5.25;4.53;;;794.30;1152.00;;;;;;5130327;27;20038;-72
2021/06/27 09:38:44;;;;;;;7.30;4.53;;;794.40;1203.20;;;;;;5115039;27;20022;-73
2021/06/27 09:41:31;;;;;;;5.57;4.47;;;819.30;1177.60;;;;;;5130455;27;20696;-73
2021/06/27 09:43:56;;;;;;;7.45;4.57;;;819.40;1126.40;;;;;;5132516;27;20030;-73
2021/06/27 09:46:37;;;;;;;4.97;3.80;;;819.40;1126.40;;;;;;5123543;27;20019;-72
2021/06/27 09:49:09;;;;;;;7.63;3.50;;;819.20;1126.40;;;;;;5123112;27;20109;-72
2021/06/27 09:51:37;;;;;;;8.07;4.47;;;794.50;1126.40;;;;;;5127097;27;20015;-75
2021/06/27 09:54:10;;;;;;;8.18;3.95;;;794.20;1177.60;;;;;;5133650;27;20067;-73
2021/06/27 09:56:38;;;;;;;5.60;4.25;;;794.20;1152.00;;;;;;5133478;27;20030;-72
2021/06/27 09:59:06;;;;;;;9.95;3.75;;;819.20;1126.40;;;;;;5133212;27;20019;-77
2021/06/27 10:01:35;;;;;;;4.57;3.72;;;819.40;1075.20;;;;;;5115039;27;20092;-76
2021/06/27 10:04:03;;;;;;;8.15;3.78;;;819.60;1049.60;;;;;;5133238;27;20206;-73
2021/06/27 10:06:31;;;;;;;8.88;4.57;;;819.90;1075.20;;;;;;5132699;27;20019;-75
2021/06/27 10:09:12;;;;;;;10.02;4.68;;;820.10;1024.00;;;;;;5114606;27;20126;-73
2021/06/27 10:11:39;;;;;;;5.97;4.10;;;820.10;1049.60;;;;;;5114355;27;20030;-73
2021/06/27 10:14:10;;;;;;;9.52;4.30;;;819.80;1049.60;;;;;;5133073;27;20483;-72
2021/06/27 10:16:37;;;;;;;6.40;4.47;;;819.70;1049.60;;;;;;5114435;27;20094;-73
2021/06/27 10:19:04;;;;;;;4.88;3.97;;;819.70;1100.80;;;;;;5132315;27;20015;-73
2021/06/27 10:21:30;;;;;;;5.75;4.53;;;819.90;1075.20;;;;;;5132019;27;20027;-73
2021/06/27 10:23:57;;;;;;;8.18;4.30;;;820.10;1049.60;;;;;;5132010;27;20023;-73
2021/06/27 10:26:26;;;;;;;5.28;4.50;;;819.90;1100.80;;;;;;5129178;27;20027;-77
2021/06/27 10:28:52;;;;;;;6.20;4.93;;;820.10;1100.80;;;;;;5132017;27;20091;-76
2021/06/27 10:31:22;;;;;;;7.47;3.85;;;845.20;1024.00;;;;;;5113428;27;20019;-74
2021/06/27 10:33:49;;;;;;;9.25;4.18;;;845.10;1049.60;;;;;;5132247;27;20369;-72
2021/06/27 10:36:39;;;;;;;7.03;3.97;;;845.20;1024.00;;;;;;5131966;27;20031;-72
2021/06/27 10:39:13;;;;;;;7.68;3.88;;;845.40;998.40;;;;;;5112115;28;20477;-75
2021/06/27 10:42:00;;;;;;;7.00;4.65;;;845.40;1024.00;;;;;;5112233;28;20062;-72
2021/06/27 10:44:38;;;;;;;5.63;4.30;;;844.90;1049.60;;;;;;5112289;28;20019;-73
2021/06/27 10:47:05;;;;;;;9.05;5.32;;;844.90;1049.60;;;;;;5112057;28;20477;-73
2021/06/27 10:49:32;;;;;;;8.38;6.20;;;845.00;1049.60;;;;;;5111958;28;20031;-73
2021/06/27 10:52:06;;;;;;;8.70;6.65;;;845.10;1024.00;;;;;;5125940;27;20043;-73
2021/06/27 10:54:35;;;;;;;7.00;5.35;;;845.30;1024.00;;;;;;5113196;28;20527;-74
2021/06/27 10:57:03;;;;;;;8.73;4.78;;;845.40;1049.60;;;;;;5111220;28;20031;-75
2021/06/27 10:59:38;;;;;;;8.98;5.03;;;845.50;1049.60;;;;;;5113347;28;20027;-73
2021/06/27 11:02:17;;;;;;;5.13;4.40;;;845.20;1049.60;;;;;;5113585;28;20015;-73
2021/06/27 11:04:43;;;;;;;7.00;5.47;;;845.40;1075.20;;;;;;5132079;28;20047;-73
2021/06/27 11:07:35;;;;;;;11.98;6.70;;;845.40;1024.00;;;;;;5131601;28;20019;-73
2021/06/27 11:10:20;;;;;;;6.45;5.35;;;845.70;1075.20;;;;;;5131493;28;20107;-74
2021/06/27 11:13:01;;;;;;;7.28;4.93;;;870.40;1024.00;;;;;;5131699;27;20504;-74
2021/06/27 11:15:35;;;;;;;7.45;4.85;;;845.70;1024.00;;;;;;5130062;28;20027;-75
2021/06/27 11:18:06;;;;;;;6.07;4.60;;;845.40;1075.20;;;;;;5134156;27;20527;-77
2021/06/27 11:20:44;;;;;;;5.97;5.10;;;845.40;1075.20;;;;;;5150554;27;20033;-76
2021/06/27 11:23:10;;;;;;;10.30;6.28;;;844.90;1049.60;;;;;;5122500;27;20023;-77
2021/06/27 11:25:42;;;;;;;5.80;5.15;;;845.00;1049.60;;;;;;5118103;27;20084;-76
2021/06/27 11:28:20;;;;;;;4.70;4.20;;;845.10;1049.60;;;;;;5124068;27;20544;-76
2021/06/27 11:30:54;;;;;;;4.93;4.20;;;845.20;972.80;;;;;;5117781;27;20032;-76
2021/06/27 11:33:25;;;;;;;9.85;6.25;;;845.40;998.40;;;;;;5117056;27;20051;-78
2021/06/27 11:35:56;;;;;;;8.82;5.05;;;845.60;998.40;;;;;;5117818;27;20035;-76
2021/06/27 11:38:37;;;;;;;10.57;4.32;;;870.40;998.40;;;;;;5123174;27;20099;-76
2021/06/27 11:41:12;;;;;;;7.88;4.40;;;845.70;972.80;;;;;;5117692;27;20380;-76
2021/06/27 11:43:59;;;;;;;4.90;4.30;;;845.40;998.40;;;;;;5131310;27;20038;-76
2021/06/27 11:46:35;;;;;;;5.28;4.45;;;845.60;998.40;;;;;;5129174;27;20483;-77
2021/06/27 11:49:09;;;;;;;6.85;4.38;;;845.70;972.80;;;;;;5131466;27;20023;-78
2021/06/27 11:51:47;;;;;;;7.32;4.93;;;870.50;972.80;;;;;;5114359;28;20024;-77
2021/06/27 11:54:16;;;;;;;5.90;4.20;;;870.50;947.20;;;;;;5125755;27;20035;-77
2021/06/27 11:57:05;;;;;;;10.77;5.40;;;870.60;972.80;;;;;;5117124;27;20039;-76
2021/06/27 11:59:39;;;;;;;7.10;5.22;;;870.70;972.80;;;;;;5134135;27;20371;-76
2021/06/27 12:02:17;;;;;;;8.20;6.05;;;870.70;972.80;;;;;;5117224;27;20056;-76
2021/06/27 12:04:45;;;;;;;5.88;4.80;;;870.90;998.40;;;;;;5136092;27;20026;-76
2021/06/27 12:07:34;;;;;;;8.38;5.57;;;871.00;972.80;;;;;;5135878;27;20480;-76
2021/06/27 12:10:04;;;;;;;8.13;4.85;;;871.00;972.80;;;;;;5121380;27;20072;-76
2021/06/27 12:12:37;;;;;;;9.82;5.03;;;870.90;921.60;;;;;;5135172;27;20110;-76
2021/06/27 12:15:08;;;;;;;7.35;6.00;;;870.50;998.40;;;;;;5120081;27;20027;-78
2021/06/27 12:17:34;;;;;;;7.60;4.88;;;870.40;1024.00;;;;;;5135164;27;20518;-76
2021/06/27 12:20:00;;;;;;;6.22;5.30;;;870.70;947.20;;;;;;5135798;27;20023;-76